National Weather Service Raw Text Product

Displaying AFOS PIL: TAFALO Received: 2017-12-07 23:30 UTC


963 
FTUS43 KDMX 072330
TAFALO
TAF
KALO 072330Z 0800/0824 25008KT P6SM FEW250
     FM081100 26008KT P6SM VCSH OVC070
     FM081700 28009KT P6SM BKN250=